Wind Cave National Park, SD

12:56 PM MDT on July 27, 2016 (GMT -0600)
Hay Creek Road | | Change Station

Elev 5325 ft 43.70 °N, 103.67 °W | Updated 3 seconds ago

Clear
Clear
78.4 °F
Feels Like 79 °F
N
4.5
Wind Variable Wind from NW
Gusts 4.9 mph

Today
High -- | Low -- °F
--% Chance of Precip.
Yesterday
High -- | Low -- °F
Precip. -- in
Pressure 30.04 in
Visibility 10.0 miles
Clouds Clear
Heat Index 79 °F
Dew Point 53 °F
Humidity 41%
Rainfall 0.17 in
Snow Depth Not available.
5:38 AM 8:22 PM
Last Quarter, 40% visible
METAR KCUT 271853Z AUTO 19004KT 10SM CLR 25/10 A3024 RMK AO2 SLP171 T02500100
Pressure 30.04 in
Visibility 10.0 miles
Clouds Clear
Heat Index 79 °F
Dew Point 53 °F
Humidity 41%
Rainfall 0.17 in
Snow Depth Not available.
5:38 AM 8:22 PM
Last Quarter, 40% visible
METAR KCUT 271853Z AUTO 19004KT 10SM CLR 25/10 A3024 RMK AO2 SLP171 T02500100

10-Day Weather Forecast

Almanac

Astronomy

Jul. 27, 2016 Rise Set
Actual Time
Civil Twilight
Nautical Twilight
Astronomical Twilight
Moon
Length of Visible Light
Length of Day
Tomorrow will be .
, % of the Moon is Illuminated

Today's Extremes

State Highs State Lows

Community

WunderPhotos

Upload Photos

1,927,897 photos uploaded!

WunderBlog® & News

Nearby

Air Quality

  Air Quality AQ Index Pollutant
Not available.

Snow Depth

Station Depth Elevation

Earthquake Activity

City Distance Mag. Time & Date
Minimum magnitude displayed is 2.5.

Coastal Water Temperatures

Place Temperature

Stations

Nearby Weather Stations

Station Location Temp. Windchill Dew Point Humidity Wind Precip. Elev Updated Type
                   

Watches & Warnings

There are currently no watches in effect.